Time;durP1;ratioP1;P1;durP2;ratioP2;P2;SDS_P1;SDS_P2;PMS_P1;PMS_P2;Temp;Humidity;BMP_temperature;BMP_pressure;BME280_temperature;BME280_humidity;BME280_pressure;Samples;Min_cycle;Max_cycle;Signal;HPM_P1;HPM_P2
2022/10/01 00:00:52;;;;;;;1999.90;999.90;;;15.10;99.90;;;;;;5076041;28;20072;-80
2022/10/01 00:03:19;;;;;;;1999.90;999.90;;;13.80;99.90;;;;;;5093035;28;20527;-80
2022/10/01 00:05:45;;;;;;;1999.90;999.90;;;14.70;99.90;;;;;;5093840;28;20047;-79
2022/10/01 00:08:14;;;;;;;1999.90;999.90;;;15.90;99.90;;;;;;5093520;28;20347;-80
2022/10/01 00:10:41;;;;;;;1999.90;999.90;;;14.60;99.90;;;;;;5105204;28;20044;-81
2022/10/01 00:13:07;;;;;;;1999.90;999.90;;;13.90;99.90;;;;;;5106458;28;20070;-78
2022/10/01 00:15:32;;;;;;;1999.90;999.90;;;14.00;99.90;;;;;;5106446;28;20040;-81
2022/10/01 00:17:58;;;;;;;1999.90;999.90;;;14.60;99.90;;;;;;5107789;28;20042;-81
2022/10/01 00:20:24;;;;;;;1999.90;999.90;;;14.50;99.90;;;;;;5107052;28;20040;-80
2022/10/01 00:22:50;;;;;;;1999.90;999.90;;;14.50;99.90;;;;;;5107569;28;20075;-80
2022/10/01 00:25:15;;;;;;;1999.90;999.90;;;14.00;99.90;;;;;;5106146;28;20211;-81
2022/10/01 00:27:45;;;;;;;1999.90;999.90;;;14.40;99.90;;;;;;5107876;28;20109;-81
2022/10/01 00:30:11;;;;;;;1999.90;999.90;;;14.20;99.90;;;;;;5108317;28;20046;-81
2022/10/01 00:32:39;;;;;;;1999.90;999.90;;;14.10;99.90;;;;;;5105949;28;20040;-80
2022/10/01 00:35:08;;;;;;;1999.90;999.90;;;14.40;99.90;;;;;;5106881;28;20481;-81
2022/10/01 00:37:36;;;;;;;1999.90;999.90;;;14.60;99.90;;;;;;5106469;28;20056;-81
2022/10/01 00:40:05;;;;;;;;;;;14.50;99.90;;;;;;5098243;28;20047;-80
2022/10/01 00:42:31;;;;;;;1999.90;999.90;;;14.10;99.90;;;;;;5094083;28;19915;-80
2022/10/01 00:45:01;;;;;;;1999.90;999.90;;;14.40;99.90;;;;;;5094452;28;20055;-81
2022/10/01 00:47:32;;;;;;;1999.90;999.90;;;14.40;99.90;;;;;;5093539;28;20051;-80
2022/10/01 00:50:30;;;;;;;1999.90;999.90;;;14.30;99.90;;;;;;5092821;28;20476;-80
2022/10/01 00:53:03;;;;;;;1999.90;999.90;;;14.30;99.90;;;;;;5092120;28;20051;-80
2022/10/01 00:55:36;;;;;;;1999.90;999.90;;;14.70;99.90;;;;;;5075121;28;20036;-80
2022/10/01 00:58:03;;;;;;;1999.90;999.90;;;14.60;99.90;;;;;;5093628;28;20036;-80
2022/10/01 01:00:30;;;;;;;1999.90;999.90;;;14.40;99.90;;;;;;5093730;28;20095;-79
2022/10/01 01:02:56;;;;;;;1999.90;999.90;;;14.60;99.90;;;;;;5093522;28;20044;-80
2022/10/01 01:05:22;;;;;;;1999.90;999.90;;;14.30;99.90;;;;;;5092080;28;20040;-80
2022/10/01 01:07:51;;;;;;;1999.90;999.90;;;14.40;99.90;;;;;;5093545;28;20560;-79
2022/10/01 01:10:47;;;;;;;1999.90;999.90;;;14.30;99.90;;;;;;5093071;28;20468;-79
2022/10/01 01:13:25;;;;;;;1999.90;999.90;;;14.60;99.90;;;;;;5079308;28;20052;-80
2022/10/01 01:16:11;;;;;;;1999.90;999.90;;;14.20;99.90;;;;;;5092569;28;20447;-79
2022/10/01 01:18:43;;;;;;;1999.90;999.90;;;14.60;99.90;;;;;;5093198;28;20048;-79
2022/10/01 01:21:27;;;;;;;1999.90;999.90;;;14.10;99.90;;;;;;5092997;28;20083;-80
2022/10/01 01:24:17;;;;;;;1999.90;999.90;;;14.10;99.90;;;;;;5091920;28;20044;-80
2022/10/01 01:26:57;;;;;;;1590.55;298.23;;;14.40;99.90;;;;;;5091062;28;20136;-79
2022/10/01 01:29:31;;;;;;;1999.90;999.90;;;14.10;99.90;;;;;;5092170;28;20043;-79
2022/10/01 01:32:01;;;;;;;1999.90;999.90;;;14.10;99.90;;;;;;5092483;28;20463;-78
2022/10/01 01:34:31;;;;;;;1999.90;999.90;;;14.10;99.90;;;;;;5092225;28;20044;-79
2022/10/01 01:37:03;;;;;;;1999.90;999.90;;;14.70;99.90;;;;;;5073662;28;20051;-79
2022/10/01 01:39:32;;;;;;;1999.90;999.90;;;14.60;99.90;;;;;;5074665;28;20127;-79
2022/10/01 01:42:04;;;;;;;1999.90;999.90;;;14.60;99.90;;;;;;5073887;28;20055;-79
2022/10/01 01:44:37;;;;;;;1999.90;999.90;;;14.30;99.90;;;;;;5092370;28;20479;-78
2022/10/01 01:47:06;;;;;;;1669.57;555.08;;;14.10;99.90;;;;;;5091782;28;20039;-79
2022/10/01 01:49:33;;;;;;;1999.90;999.90;;;14.60;99.90;;;;;;5092265;28;20133;-78
2022/10/01 01:52:12;;;;;;;1999.90;999.90;;;14.10;99.90;;;;;;5091286;28;20039;-78
2022/10/01 01:54:39;;;;;;;1999.90;999.90;;;14.60;99.90;;;;;;5092352;28;20066;-80
2022/10/01 01:57:06;;;;;;;1999.90;999.90;;;14.20;99.90;;;;;;5073799;28;20048;-79
2022/10/01 01:59:33;;;;;;;1999.90;999.90;;;14.70;99.90;;;;;;5091822;28;20371;-80
2022/10/01 02:01:59;;;;;;;1999.90;999.90;;;14.20;99.90;;;;;;5091989;28;20036;-79
2022/10/01 02:04:44;;;;;;;1999.90;999.90;;;14.10;99.90;;;;;;5091685;28;20127;-79
2022/10/01 02:07:31;;;;;;;1999.90;999.90;;;14.60;99.90;;;;;;5092579;28;20059;-79
2022/10/01 02:10:45;;;;;;;1999.90;999.90;;;14.60;99.90;;;;;;5091937;28;20508;-79
2022/10/01 02:13:29;;;;;;;1999.90;999.90;;;14.20;99.90;;;;;;5073165;28;20523;-80
2022/10/01 02:16:03;;;;;;;1700.05;765.97;;;14.60;99.90;;;;;;5074480;28;20044;-79
2022/10/01 02:18:37;;;;;;;1999.90;999.90;;;14.70;99.90;;;;;;5091619;28;20073;-80
2022/10/01 02:21:19;;;;;;;1999.90;999.90;;;14.60;99.90;;;;;;5092085;28;20385;-79
2022/10/01 02:24:01;;;;;;;1899.80;770.67;;;14.50;99.90;;;;;;5091210;28;20040;-79
2022/10/01 02:26:29;;;;;;;1999.90;999.90;;;14.30;99.90;;;;;;5091016;28;20040;-81
2022/10/01 02:29:00;;;;;;;1999.90;999.90;;;14.20;99.90;;;;;;5091042;28;20481;-82
2022/10/01 02:31:29;;;;;;;1999.90;999.90;;;14.80;99.90;;;;;;5092149;28;20118;-80
2022/10/01 02:33:57;;;;;;;1999.90;999.90;;;14.80;99.90;;;;;;5091495;28;20396;-80
2022/10/01 02:36:24;;;;;;;1999.90;999.90;;;14.80;99.90;;;;;;5091684;28;20039;-81
2022/10/01 02:38:52;;;;;;;1999.90;999.90;;;15.80;99.90;;;;;;5091533;28;20392;-81
2022/10/01 02:41:25;;;;;;;1999.90;999.90;;;15.00;99.90;;;;;;5091707;28;20047;-80
2022/10/01 02:44:05;;;;;;;1797.05;803.25;;;14.30;99.90;;;;;;5091417;28;20357;-79
2022/10/01 02:46:53;;;;;;;1999.90;999.90;;;14.80;99.90;;;;;;5056939;28;20040;-80
2022/10/01 02:49:19;;;;;;;1999.90;999.90;;;14.40;99.90;;;;;;5091781;28;20542;-80
2022/10/01 02:51:54;;;;;;;1549.40;533.28;;;15.10;99.90;;;;;;5091004;28;20270;-79
2022/10/01 02:54:28;;;;;;;1999.90;999.90;;;14.40;99.90;;;;;;5091816;28;20123;-79
2022/10/01 02:59:40;;;;;;;1999.90;999.90;;;14.50;99.90;;;;;;5091993;28;20095;-80
2022/10/01 03:02:05;;;;;;;1999.90;999.90;;;14.70;99.90;;;;;;5091206;28;20048;-80
2022/10/01 03:04:31;;;;;;;1999.90;999.90;;;15.10;99.90;;;;;;5091807;28;20055;-80
2022/10/01 03:07:02;;;;;;;1999.90;999.90;;;14.50;99.90;;;;;;5073263;28;20036;-80
2022/10/01 03:09:30;;;;;;;1999.90;999.90;;;15.30;99.90;;;;;;5091851;28;20044;-79
2022/10/01 03:11:56;;;;;;;;;;;15.10;99.90;;;;;;5091483;28;20067;-78
2022/10/01 03:14:23;;;;;;;1999.90;594.35;;;15.20;99.90;;;;;;5091066;28;20010;-78
2022/10/01 03:16:49;;;;;;;1999.90;469.00;;;15.00;99.90;;;;;;5095310;28;20114;-79
2022/10/01 03:19:15;;;;;;;1999.90;999.90;;;15.10;99.90;;;;;;5095342;28;20564;-79
2022/10/01 03:21:41;;;;;;;1999.90;284.35;;;14.60;99.90;;;;;;5094017;28;20135;-80
2022/10/01 03:24:06;;;;;;;1999.90;137.77;;;16.70;99.90;;;;;;5095556;28;20055;-80
2022/10/01 03:26:32;;;;;;;1999.90;999.90;;;14.90;99.90;;;;;;5093115;28;20486;-79
2022/10/01 03:28:58;;;;;;;1191.93;511.42;;;15.10;99.90;;;;;;5076512;28;20032;-79
2022/10/01 03:31:23;;;;;;;1999.90;999.90;;;14.90;99.90;;;;;;5094807;28;20142;-78
2022/10/01 03:33:49;;;;;;;1999.90;999.90;;;15.40;99.90;;;;;;5093928;28;20083;-77
2022/10/01 03:36:15;;;;;;;1999.90;999.90;;;15.40;99.90;;;;;;5094724;28;20043;-78
2022/10/01 03:38:41;;;;;;;1999.90;999.90;;;14.60;99.90;;;;;;5094215;28;20119;-78
2022/10/01 03:41:06;;;;;;;1999.90;999.90;;;16.00;99.90;;;;;;5093955;28;20044;-78
2022/10/01 03:43:32;;;;;;;1751.20;758.45;;;15.30;99.90;;;;;;5093758;28;20102;-77
2022/10/01 03:45:58;;;;;;;1999.90;796.88;;;15.00;99.90;;;;;;5093629;28;20170;-78
2022/10/01 03:48:24;;;;;;;1999.90;999.90;;;15.40;99.90;;;;;;5094246;28;20040;-78
2022/10/01 03:50:57;;;;;;;1999.90;999.90;;;14.80;99.90;;;;;;5076380;28;20039;-78
2022/10/01 03:53:25;;;;;;;1999.90;999.90;;;14.90;99.90;;;;;;5094010;28;20464;-78
2022/10/01 03:55:51;;;;;;;1999.90;999.90;;;15.40;99.90;;;;;;5093552;28;20043;-78
2022/10/01 03:58:17;;;;;;;1999.90;999.90;;;14.80;99.90;;;;;;5093909;28;20465;-78
2022/10/01 04:00:45;;;;;;;1989.80;790.38;;;15.30;99.90;;;;;;5094244;28;20051;-78
2022/10/01 04:03:12;;;;;;;1999.90;999.90;;;15.60;99.90;;;;;;5076415;28;20040;-79
2022/10/01 04:05:38;;;;;;;1422.70;529.95;;;16.40;99.90;;;;;;5094402;28;20055;-78
2022/10/01 04:08:04;;;;;;;1999.90;999.90;;;15.30;99.90;;;;;;5092813;28;20040;-78
2022/10/01 04:10:29;;;;;;;1999.90;999.90;;;14.90;99.90;;;;;;5076072;28;20350;-79
2022/10/01 04:12:55;;;;;;;1999.90;999.90;;;15.60;99.90;;;;;;5093075;28;20111;-78
2022/10/01 04:15:22;;;;;;;1999.90;999.90;;;15.70;99.90;;;;;;5093456;28;20036;-78
2022/10/01 04:17:48;;;;;;;1999.90;999.90;;;15.10;99.90;;;;;;5093462;28;20054;-78
2022/10/01 04:20:14;;;;;;;1999.90;999.90;;;15.80;99.90;;;;;;5093827;28;20093;-79
2022/10/01 04:22:40;;;;;;;1999.90;999.90;;;15.40;99.90;;;;;;5094368;28;20135;-79
2022/10/01 04:25:10;;;;;;;1999.90;999.90;;;15.00;99.90;;;;;;5092906;28;20048;-79
2022/10/01 04:27:40;;;;;;;1999.90;999.90;;;15.60;99.90;;;;;;5092024;28;20036;-78
2022/10/01 04:30:08;;;;;;;1999.90;698.33;;;15.80;99.90;;;;;;5093393;28;20145;-77
2022/10/01 04:32:34;;;;;;;1999.90;999.90;;;15.00;99.90;;;;;;5093203;28;20535;-78
2022/10/01 04:35:02;;;;;;;1771.32;774.28;;;15.40;99.90;;;;;;5092969;28;20044;-78
2022/10/01 04:37:29;;;;;;;1999.90;999.90;;;15.20;99.90;;;;;;5075309;28;20412;-78
2022/10/01 04:39:55;;;;;;;1999.90;999.90;;;15.40;99.90;;;;;;5092954;28;20115;-78
2022/10/01 04:42:21;;;;;;;1999.90;999.90;;;15.50;99.90;;;;;;5075069;28;20412;-78
2022/10/01 04:44:47;;;;;;;1999.90;999.90;;;15.30;99.90;;;;;;5093006;28;20040;-79
2022/10/01 04:47:13;;;;;;;1999.90;999.90;;;15.90;99.90;;;;;;5092740;28;20043;-78
2022/10/01 04:49:39;;;;;;;1999.90;575.35;;;15.10;99.90;;;;;;5093007;28;20105;-77
2022/10/01 04:52:05;;;;;;;1999.90;999.90;;;15.90;99.90;;;;;;5074983;28;20047;-78
2022/10/01 04:54:31;;;;;;;1999.90;999.90;;;15.20;99.90;;;;;;5075343;28;20044;-78
2022/10/01 04:56:57;;;;;;;1999.90;999.90;;;15.30;99.90;;;;;;5073460;28;20148;-78
2022/10/01 04:59:23;;;;;;;1999.90;999.90;;;15.20;99.90;;;;;;5093114;28;20487;-78
2022/10/01 05:01:48;;;;;;;1350.97;298.55;;;16.00;99.90;;;;;;5091727;28;20044;-78
2022/10/01 05:04:20;;;;;;;1296.60;77.13;;;15.30;99.90;;;;;;5060391;28;20357;-77
2022/10/01 05:06:46;;;;;;;1999.90;806.53;;;15.50;99.90;;;;;;5093173;28;20043;-78
2022/10/01 05:09:11;;;;;;;1999.90;207.40;;;15.30;99.90;;;;;;5073760;28;20349;-78
2022/10/01 05:11:37;;;;;;;1999.90;999.90;;;16.30;99.90;;;;;;5092930;28;20109;-78
2022/10/01 05:14:03;;;;;;;1999.78;182.98;;;16.00;99.90;;;;;;5092491;28;20043;-77
2022/10/01 05:16:29;;;;;;;1999.90;999.90;;;15.90;99.90;;;;;;5092552;28;20522;-79
2022/10/01 05:18:55;;;;;;;1999.90;999.90;;;15.60;99.90;;;;;;5092084;28;20079;-79
2022/10/01 05:21:20;;;;;;;1999.90;999.90;;;16.20;99.90;;;;;;5041161;28;20452;-78
2022/10/01 05:23:47;;;;;;;1999.90;562.67;;;15.50;99.90;;;;;;5092881;28;20096;-79
2022/10/01 05:26:12;;;;;;;1999.90;999.90;;;16.30;99.90;;;;;;5091870;28;20047;-79
2022/10/01 05:28:43;;;;;;;1732.55;787.00;;;15.50;99.90;;;;;;5091594;28;20040;-78
2022/10/01 05:31:10;;;;;;;1999.90;999.90;;;16.30;99.90;;;;;;5092517;28;20062;-82
2022/10/01 05:33:35;;;;;;;1999.90;999.90;;;15.50;99.90;;;;;;5092682;28;20035;-84
2022/10/01 05:36:04;;;;;;;1999.90;999.90;;;16.10;99.90;;;;;;5074139;28;20043;-83
2022/10/01 05:38:29;;;;;;;1999.90;999.90;;;15.60;99.90;;;;;;5092339;28;20043;-83
2022/10/01 05:40:55;;;;;;;1955.65;250.35;;;16.30;99.90;;;;;;5091807;28;20036;-82
2022/10/01 05:43:21;;;;;;;1798.30;780.00;;;16.50;99.90;;;;;;5091625;28;20372;-84
2022/10/01 05:45:46;;;;;;;1999.90;999.90;;;16.10;99.90;;;;;;5090990;28;20150;-82
2022/10/01 05:48:12;;;;;;;1865.22;388.20;;;16.40;99.90;;;;;;5091834;28;20119;-82
2022/10/01 05:50:39;;;;;;;1999.90;999.90;;;16.60;99.90;;;;;;5091735;28;20394;-82
2022/10/01 05:53:06;;;;;;;711.35;31.63;;;16.20;99.90;;;;;;5091474;28;20114;-81
2022/10/01 05:55:33;;;;;;;1999.90;999.90;;;16.70;99.90;;;;;;5092172;28;20080;-82
2022/10/01 05:58:02;;;;;;;1254.55;510.08;;;15.90;99.90;;;;;;5074102;28;20051;-81
2022/10/01 06:00:29;;;;;;;1999.90;999.90;;;16.50;99.90;;;;;;5091726;28;20040;-83
2022/10/01 06:02:56;;;;;;;1999.90;999.90;;;16.70;99.90;;;;;;5074448;28;20051;-83
2022/10/01 06:05:22;;;;;;;1999.90;999.90;;;16.40;99.90;;;;;;5092075;28;20044;-83
2022/10/01 06:07:49;;;;;;;1999.90;999.90;;;16.80;99.90;;;;;;5092645;28;20051;-83
2022/10/01 06:10:15;;;;;;;1999.90;999.90;;;15.90;99.90;;;;;;5092252;28;20092;-84
2022/10/01 06:12:42;;;;;;;1999.90;999.90;;;16.80;99.90;;;;;;5091407;28;20043;-84
2022/10/01 06:15:09;;;;;;;1999.90;772.83;;;16.00;99.90;;;;;;5074156;28;20040;-84
2022/10/01 06:17:34;;;;;;;1999.90;999.90;;;16.10;99.90;;;;;;5091643;28;20059;-83
2022/10/01 06:20:00;;;;;;;1999.90;999.90;;;17.00;99.90;;;;;;5090199;28;20043;-84
2022/10/01 06:22:26;;;;;;;1999.90;999.90;;;17.00;99.90;;;;;;5090862;28;20052;-85
2022/10/01 06:24:52;;;;;;;1999.90;999.90;;;17.00;99.90;;;;;;5074154;28;20441;-82
2022/10/01 06:27:17;;;;;;;1832.63;764.83;;;17.10;99.90;;;;;;5090749;28;20469;-83
2022/10/01 06:29:43;;;;;;;1999.90;580.35;;;16.30;99.90;;;;;;5091698;28;20051;-83
2022/10/01 06:32:12;;;;;;;1999.90;999.90;;;17.10;99.90;;;;;;5072619;28;20051;-81
2022/10/01 06:34:39;;;;;;;1999.90;624.28;;;17.10;99.90;;;;;;5073238;28;20110;-80
2022/10/01 06:37:05;;;;;;;1999.90;999.90;;;16.90;99.90;;;;;;5090762;28;20047;-80
2022/10/01 06:39:30;;;;;;;1999.90;999.90;;;16.70;99.90;;;;;;5073193;28;20067;-87
2022/10/01 06:41:56;;;;;;;1999.90;999.90;;;16.40;99.90;;;;;;5090188;28;20040;-87
2022/10/01 06:44:21;;;;;;;1999.90;999.90;;;17.50;99.90;;;;;;5073993;28;20044;-88
2022/10/01 06:46:47;;;;;;;1999.90;999.90;;;17.50;99.90;;;;;;5072812;28;20148;-89
2022/10/01 06:49:13;;;;;;;1999.90;999.90;;;17.40;99.90;;;;;;5090854;28;20067;-88
2022/10/01 06:54:24;;;;;;;1999.90;999.90;;;16.50;99.90;;;;;;5095374;28;20059;-86
2022/10/01 06:56:50;;;;;;;1999.90;999.90;;;17.60;99.90;;;;;;5094929;28;20071;-87
2022/10/01 06:59:16;;;;;;;1905.78;769.45;;;17.00;99.90;;;;;;5095693;28;20481;-88
2022/10/01 07:01:41;;;;;;;1407.45;518.13;;;16.80;99.90;;;;;;5094941;28;20052;-87
2022/10/01 07:04:07;;;;;;;1850.00;766.75;;;17.80;99.90;;;;;;5096067;28;20044;-83
2022/10/01 07:06:33;;;;;;;1999.90;999.90;;;16.60;99.90;;;;;;5094705;28;20122;-81
2022/10/01 07:08:58;;;;;;;1999.90;999.90;;;17.80;99.90;;;;;;5095108;28;20044;-88
2022/10/01 07:11:25;;;;;;;1999.90;999.90;;;17.60;99.90;;;;;;5059634;28;20128;-87
2022/10/01 07:13:51;;;;;;;1999.90;999.90;;;17.30;99.90;;;;;;5095625;28;20055;-88
2022/10/01 07:16:17;;;;;;;1999.90;999.90;;;16.70;99.90;;;;;;5094967;28;20058;-87
2022/10/01 07:18:42;;;;;;;1999.90;999.90;;;17.60;99.90;;;;;;5095404;28;20044;-89
2022/10/01 07:21:08;;;;;;;1999.90;999.90;;;16.70;99.90;;;;;;5095276;28;20044;-89
2022/10/01 07:23:34;;;;;;;1999.90;999.90;;;16.70;99.90;;;;;;5093968;28;20119;-87
2022/10/01 07:26:02;;;;;;;1999.90;999.90;;;16.80;99.90;;;;;;5095442;28;20087;-88
2022/10/01 07:28:28;;;;;;;1999.90;999.90;;;17.80;99.90;;;;;;5094319;28;20081;-89
2022/10/01 07:31:00;;;;;;;1999.90;999.90;;;17.80;99.90;;;;;;5094409;28;20047;-89
2022/10/01 07:33:26;;;;;;;1999.90;999.90;;;17.60;99.90;;;;;;5094575;28;20105;-88
2022/10/01 07:35:52;;;;;;;1999.90;999.90;;;17.70;99.90;;;;;;5094911;28;20040;-89
2022/10/01 07:38:18;;;;;;;1999.90;999.90;;;17.90;99.90;;;;;;5094618;28;20051;-89
2022/10/01 07:40:43;;;;;;;1702.63;768.45;;;18.00;99.90;;;;;;5094538;28;20469;-88
2022/10/01 07:43:09;;;;;;;1999.90;999.90;;;17.90;99.90;;;;;;5076883;28;20044;-90
2022/10/01 07:45:34;;;;;;;1999.90;999.90;;;17.10;99.90;;;;;;5094550;28;20082;-88
2022/10/01 07:48:01;;;;;;;1999.90;999.90;;;17.10;99.90;;;;;;5094319;28;20044;-88
2022/10/01 07:50:31;;;;;;;1999.90;999.90;;;17.30;99.90;;;;;;5093974;28;20044;-88
2022/10/01 07:52:58;;;;;;;1999.90;999.90;;;17.20;99.90;;;;;;5094204;28;20127;-88
2022/10/01 07:55:29;;;;;;;1866.70;770.58;;;18.10;99.90;;;;;;5094049;28;20133;-87
2022/10/01 07:58:00;;;;;;;1999.90;999.90;;;19.30;99.90;;;;;;5093869;28;20055;-86
2022/10/01 08:00:27;;;;;;;1999.90;999.90;;;18.40;99.90;;;;;;5093183;28;20055;-87
2022/10/01 08:02:54;;;;;;;1999.90;999.90;;;19.40;99.90;;;;;;5094208;28;20040;-88
2022/10/01 08:05:22;;;;;;;;;;;21.00;99.90;;;;;;5094433;28;20130;-87
2022/10/01 08:07:48;;;;;;;1999.90;999.90;;;21.50;99.90;;;;;;5094102;28;19920;-86
2022/10/01 08:10:16;;;;;;;1999.90;999.90;;;22.00;99.90;;;;;;5092583;28;20431;-86
2022/10/01 08:12:42;;;;;;;1999.90;999.90;;;20.60;99.90;;;;;;5093545;28;20079;-88
2022/10/01 08:15:14;;;;;;;1999.90;999.90;;;21.90;99.90;;;;;;5094728;28;20044;-87
2022/10/01 08:17:40;;;;;;;1999.90;999.90;;;22.10;99.90;;;;;;5093774;28;20044;-88
2022/10/01 08:20:08;;;;;;;1999.90;999.90;;;20.50;99.90;;;;;;5075910;28;20472;-87
2022/10/01 08:22:34;;;;;;;;;;;22.20;99.90;;;;;;5093296;28;20056;-85
2022/10/01 08:24:59;;;;;;;1999.90;999.90;;;21.00;99.90;;;;;;5093466;28;19931;-86
2022/10/01 08:27:26;;;;;;;1999.90;999.90;;;21.30;99.90;;;;;;5092327;28;20127;-85
2022/10/01 08:29:52;;;;;;;1999.90;999.90;;;21.00;99.90;;;;;;5093601;28;20131;-85
2022/10/01 08:32:18;;;;;;;1999.90;999.90;;;22.50;99.90;;;;;;5093122;28;20131;-85
2022/10/01 08:34:44;;;;;;;1999.90;999.90;;;22.20;99.90;;;;;;5093459;28;20048;-85
2022/10/01 08:37:09;;;;;;;1999.90;999.90;;;21.90;99.90;;;;;;5092529;28;20044;-84
2022/10/01 08:39:35;;;;;;;1999.90;999.90;;;22.40;99.90;;;;;;5058930;28;20055;-83
2022/10/01 08:42:09;;;;;;;1999.90;999.90;;;22.90;99.90;;;;;;5092748;28;20052;-82
2022/10/01 08:44:42;;;;;;;1999.90;999.90;;;22.60;99.90;;;;;;5093725;28;20044;-82
2022/10/01 08:47:29;;;;;;;1999.90;999.90;;;23.70;99.90;;;;;;5093728;28;20152;-83
2022/10/01 08:50:07;;;;;;;1999.90;999.90;;;24.60;99.90;;;;;;5093563;28;20048;-82
2022/10/01 08:52:39;;;;;;;1999.90;999.90;;;22.30;99.90;;;;;;5093387;28;20050;-81
2022/10/01 08:55:11;;;;;;;1999.90;999.90;;;21.10;99.90;;;;;;5093073;28;20051;-82
2022/10/01 08:57:42;;;;;;;1999.90;999.90;;;21.70;99.90;;;;;;5093218;28;20048;-80
2022/10/01 09:00:17;;;;;;;1999.90;999.90;;;22.90;99.90;;;;;;5092262;28;20048;-82
2022/10/01 09:02:44;;;;;;;1999.90;999.90;;;22.30;99.90;;;;;;5092737;28;20032;-80
2022/10/01 09:05:26;;;;;;;1999.90;999.90;;;23.10;99.90;;;;;;5093311;28;20048;-79
2022/10/01 09:07:54;;;;;;;1999.90;999.90;;;21.50;99.90;;;;;;5092440;28;20055;-81
2022/10/01 09:10:34;;;;;;;1999.90;999.90;;;22.00;99.90;;;;;;5092808;28;20036;-79
2022/10/01 09:13:25;;;;;;;1999.90;999.90;;;21.70;99.90;;;;;;5091810;28;20465;-78
2022/10/01 09:16:02;;;;;;;1999.90;999.90;;;21.10;99.90;;;;;;5092518;28;20084;-78
2022/10/01 09:18:57;;;;;;;1999.90;999.90;;;22.90;99.90;;;;;;5092442;28;20036;-78
2022/10/01 09:21:26;;;;;;;1999.90;999.90;;;22.70;99.90;;;;;;5092119;28;20472;-78
2022/10/01 09:24:14;;;;;;;1999.90;999.90;;;24.80;99.90;;;;;;5092899;28;20032;-80
2022/10/01 09:26:49;;;;;;;1999.90;999.90;;;23.60;99.90;;;;;;5092047;28;20036;-76
2022/10/01 09:29:24;;;;;;;1999.90;999.90;;;22.20;99.90;;;;;;5074138;28;20526;-77
2022/10/01 09:31:52;;;;;;;1999.90;999.90;;;23.00;99.90;;;;;;5092249;28;20046;-76
2022/10/01 09:34:39;;;;;;;1999.90;999.90;;;22.80;99.90;;;;;;5092908;28;20040;-83
2022/10/01 09:37:26;;;;;;;1999.90;999.90;;;22.70;99.90;;;;;;5092527;28;20043;-76
2022/10/01 09:39:58;;;;;;;1999.90;999.90;;;23.80;99.90;;;;;;5092264;28;20082;-77
2022/10/01 09:42:27;;;;;;;1999.90;999.90;;;25.00;99.90;;;;;;5091837;28;20122;-76
2022/10/01 09:44:54;;;;;;;1999.90;999.90;;;23.90;99.90;;;;;;5090658;28;20055;-80
2022/10/01 09:47:22;;;;;;;1999.90;999.90;;;24.10;99.90;;;;;;5092372;28;20487;-76
2022/10/01 09:49:48;;;;;;;1999.90;999.90;;;24.60;99.90;;;;;;5092290;28;20397;-78
2022/10/01 09:52:31;;;;;;;1999.90;999.90;;;23.80;99.90;;;;;;5092191;28;20042;-77
2022/10/01 09:55:01;;;;;;;1999.90;999.90;;;22.60;99.90;;;;;;5092495;28;20461;-77
2022/10/01 09:57:37;;;;;;;1999.90;999.90;;;22.10;99.90;;;;;;5091934;28;20091;-77
2022/10/01 10:00:12;;;;;;;1999.90;999.90;;;20.90;99.90;;;;;;5092811;28;20475;-77
2022/10/01 10:02:43;;;;;;;1999.90;999.90;;;21.10;99.90;;;;;;5092064;28;20043;-78
2022/10/01 10:05:20;;;;;;;1999.90;999.90;;;21.00;99.90;;;;;;5092917;28;20040;-78
2022/10/01 10:07:50;;;;;;;1999.90;999.90;;;20.50;99.90;;;;;;5090541;28;20048;-79
2022/10/01 10:10:19;;;;;;;1999.90;999.90;;;20.50;99.90;;;;;;5092551;28;20090;-78
2022/10/01 10:12:46;;;;;;;1999.90;999.90;;;19.70;99.90;;;;;;5090773;28;20512;-78
2022/10/01 10:15:16;;;;;;;1999.90;999.90;;;19.20;99.90;;;;;;5058023;28;20048;-80
2022/10/01 10:17:45;;;;;;;1999.90;999.90;;;19.60;99.90;;;;;;5091475;28;20040;-77
2022/10/01 10:20:22;;;;;;;1999.90;999.90;;;19.10;99.90;;;;;;5074851;28;20135;-80
2022/10/01 10:22:47;;;;;;;1999.90;999.90;;;19.20;99.90;;;;;;5092055;28;20048;-79
2022/10/01 10:25:21;;;;;;;1999.90;999.90;;;19.70;99.90;;;;;;5060651;28;20048;-81
2022/10/01 10:27:54;;;;;;;1999.90;999.90;;;18.40;99.90;;;;;;5077553;28;20404;-82
2022/10/01 10:30:25;;;;;;;1999.90;999.90;;;18.20;99.90;;;;;;5096388;28;20397;-81
2022/10/01 10:33:03;;;;;;;1999.90;999.90;;;18.30;99.90;;;;;;5095332;28;20036;-79
2022/10/01 10:35:30;;;;;;;1999.90;999.90;;;18.40;99.90;;;;;;5096615;28;20040;-85
2022/10/01 10:37:57;;;;;;;1999.90;999.90;;;19.10;99.90;;;;;;5095808;28;20635;-84
2022/10/01 10:40:33;;;;;;;1999.90;999.90;;;18.30;99.90;;;;;;5078191;28;20055;-84
2022/10/01 10:42:59;;;;;;;1999.90;999.90;;;18.60;99.90;;;;;;5077584;28;20044;-88
2022/10/01 10:45:32;;;;;;;1999.90;999.90;;;18.80;99.90;;;;;;5078069;28;20051;-87
2022/10/01 10:48:00;;;;;;;1999.90;999.90;;;19.20;99.90;;;;;;5077595;28;20052;-84
2022/10/01 10:50:30;;;;;;;1999.90;999.90;;;18.10;99.90;;;;;;5095475;28;20481;-80
2022/10/01 10:52:56;;;;;;;1999.90;999.90;;;19.20;99.90;;;;;;5094782;28;20040;-82
2022/10/01 10:55:31;;;;;;;1999.90;999.90;;;18.20;99.90;;;;;;5095768;28;20052;-81
2022/10/01 10:58:14;;;;;;;1999.90;999.90;;;18.80;99.90;;;;;;5095260;28;20048;-82
2022/10/01 11:00:46;;;;;;;1999.90;999.90;;;18.70;99.90;;;;;;5096324;28;20374;-81
2022/10/01 11:03:15;;;;;;;1999.90;999.90;;;18.40;99.90;;;;;;5095371;28;20507;-82
2022/10/01 11:05:42;;;;;;;1999.90;999.90;;;18.50;99.90;;;;;;5096009;28;20047;-81
2022/10/01 11:08:13;;;;;;;1999.90;999.90;;;18.40;99.90;;;;;;5094846;28;20059;-83
2022/10/01 11:10:41;;;;;;;1999.90;999.90;;;18.40;99.90;;;;;;5094377;28;20459;-83
2022/10/01 11:13:13;;;;;;;1999.90;999.90;;;19.30;99.90;;;;;;5094051;28;20476;-82
2022/10/01 11:16:04;;;;;;;1999.90;999.90;;;19.40;99.90;;;;;;5095448;28;20357;-83
2022/10/01 11:18:39;;;;;;;1999.90;999.90;;;19.60;99.90;;;;;;5095002;28;20043;-83
2022/10/01 11:21:13;;;;;;;1999.90;999.90;;;20.00;99.90;;;;;;5094751;28;20494;-83
2022/10/01 11:24:00;;;;;;;1999.90;999.90;;;19.90;99.90;;;;;;5076738;28;20554;-82
2022/10/01 11:26:28;;;;;;;1999.90;999.90;;;19.90;99.90;;;;;;5093839;28;20040;-83
2022/10/01 11:29:11;;;;;;;1999.90;999.90;;;20.00;99.90;;;;;;5095370;28;20423;-83
2022/10/01 11:31:40;;;;;;;1999.90;999.90;;;21.00;99.90;;;;;;5060413;28;20059;-83
2022/10/01 11:34:24;;;;;;;1999.90;999.90;;;20.70;99.90;;;;;;5094591;28;20508;-83
2022/10/01 11:37:14;;;;;;;1999.90;999.90;;;21.60;99.90;;;;;;5093091;28;20505;-83
2022/10/01 11:39:42;;;;;;;1999.90;999.90;;;22.20;99.90;;;;;;5095479;28;20105;-82
2022/10/01 11:42:21;;;;;;;1999.90;999.90;;;23.00;99.90;;;;;;5094474;28;20044;-83
2022/10/01 11:45:14;;;;;;;1999.90;999.90;;;23.30;99.90;;;;;;5094995;28;20048;-84
2022/10/01 11:47:46;;;;;;;1999.90;999.90;;;22.30;99.90;;;;;;5086173;28;20128;-84
2022/10/01 11:50:20;;;;;;;1999.90;999.90;;;23.10;99.90;;;;;;5094978;28;20480;-83
2022/10/01 11:52:57;;;;;;;1999.90;999.90;;;23.40;99.90;;;;;;5094735;28;20066;-84
2022/10/01 11:58:51;;;;;;;1999.90;999.90;;;23.50;99.90;;;;;;5093459;28;20071;-84
2022/10/01 12:01:26;;;;;;;1999.90;999.90;;;23.00;99.90;;;;;;5094774;28;20055;-84
2022/10/01 12:03:52;;;;;;;1999.90;999.90;;;22.10;99.90;;;;;;5094683;28;20115;-85
2022/10/01 12:06:59;;;;;;;1999.90;999.90;;;21.70;99.90;;;;;;5094595;28;20563;-83
2022/10/01 12:09:34;;;;;;;1999.90;999.90;;;21.40;99.90;;;;;;5011773;28;20045;-84
2022/10/01 12:12:14;;;;;;;1999.90;999.90;;;21.80;99.90;;;;;;5081729;28;20060;-82
2022/10/01 12:15:19;;;;;;;1999.90;999.90;;;21.90;99.90;;;;;;5094426;28;20484;-83
2022/10/01 12:17:52;;;;;;;1999.90;999.90;;;20.90;99.90;;;;;;5011315;28;20085;-80
2022/10/01 12:20:42;;;;;;;1999.90;999.90;;;21.10;99.90;;;;;;5063609;28;20059;-81
2022/10/01 12:23:16;;;;;;;1999.90;999.90;;;21.50;99.90;;;;;;5094212;28;20048;-81
2022/10/01 12:26:26;;;;;;;1999.90;999.90;;;21.40;99.90;;;;;;5094262;28;20040;-80